Time;durP1;ratioP1;P1;durP2;ratioP2;P2;SDS_P1;SDS_P2;PMS_P1;PMS_P2;Temp;Humidity;BMP_temperature;BMP_pressure;BME280_temperature;BME280_humidity;BME280_pressure;Samples;Min_cycle;Max_cycle;Signal;HPM_P1;HPM_P2
2023/05/16 00:01:23;;;;;;;6.78;4.15;;;;;;;14.83;100.00;99530.91;6330260;28;20055;-71
2023/05/16 00:04:25;;;;;;;5.20;3.97;;;;;;;14.82;100.00;99537.91;6348674;28;20399;-73
2023/05/16 00:07:25;;;;;;;7.97;4.53;;;;;;;14.82;100.00;99535.28;6328292;28;20090;-72
2023/05/16 00:10:26;;;;;;;5.10;3.70;;;;;;;14.81;100.00;99538.91;6305635;28;20044;-72
2023/05/16 00:13:29;;;;;;;5.65;4.13;;;;;;;14.74;100.00;99543.00;6323655;28;20052;-72
2023/05/16 00:16:30;;;;;;;4.20;3.25;;;;;;;14.68;100.00;99543.53;6323379;28;20087;-72
2023/05/16 00:19:31;;;;;;;6.45;4.05;;;;;;;14.71;100.00;99553.78;6323423;28;20051;-72
2023/05/16 00:22:32;;;;;;;6.17;3.90;;;;;;;14.65;100.00;99542.00;6305235;28;20078;-72
2023/05/16 00:25:33;;;;;;;4.13;3.38;;;;;;;14.64;100.00;99555.25;6323004;28;20048;-72
2023/05/16 00:28:34;;;;;;;5.10;3.33;;;;;;;14.64;100.00;99544.75;6305005;28;20153;-71
2023/05/16 00:31:34;;;;;;;7.43;3.55;;;;;;;14.70;100.00;99552.97;6307357;28;20044;-72
2023/05/16 00:34:35;;;;;;;4.70;3.00;;;;;;;14.76;100.00;99548.97;6323007;28;20044;-71
2023/05/16 00:37:37;;;;;;;5.95;3.80;;;;;;;14.73;100.00;99545.78;6323014;28;20056;-71
2023/05/16 00:40:38;;;;;;;4.50;3.50;;;;;;;14.67;100.00;99534.00;6304981;28;20135;-71
2023/05/16 00:43:39;;;;;;;4.45;3.38;;;;;;;14.59;100.00;99523.34;6304604;28;20048;-71
2023/05/16 00:46:40;;;;;;;4.05;3.25;;;;;;;14.51;100.00;99532.66;6322878;28;20048;-72
2023/05/16 00:49:43;;;;;;;7.65;3.63;;;;;;;14.50;100.00;99528.38;6304611;28;20044;-71
2023/05/16 00:52:44;;;;;;;3.63;3.22;;;;;;;14.45;100.00;99525.31;6322421;28;20044;-71
2023/05/16 00:55:46;;;;;;;4.72;3.70;;;;;;;14.36;100.00;99531.34;6344159;28;20055;-71
2023/05/16 00:58:47;;;;;;;6.13;3.70;;;;;;;14.44;100.00;99520.22;6347717;28;20059;-71
2023/05/16 01:01:49;;;;;;;4.60;3.73;;;;;;;14.45;100.00;99506.94;6346955;28;20056;-72
2023/05/16 01:04:50;;;;;;;5.78;3.80;;;;;;;14.38;100.00;99503.19;6346361;28;20392;-72
2023/05/16 01:07:51;;;;;;;6.90;4.00;;;;;;;14.41;100.00;99507.34;6328531;28;20056;-72
2023/05/16 01:11:20;;;;;;;5.50;3.83;;;;;;;14.42;100.00;99522.13;6328264;28;20093;-72
2023/05/16 01:14:30;;;;;;;6.55;3.92;;;;;;;14.45;100.00;99532.34;6346335;28;20060;-71
2023/05/16 01:17:40;;;;;;;6.05;3.70;;;;;;;14.45;100.00;99524.47;6346151;28;20107;-72
2023/05/16 01:20:55;;;;;;;5.93;3.95;;;;;;;14.41;100.00;99517.84;6346430;28;20047;-72
2023/05/16 01:24:23;;;;;;;4.68;3.47;;;;;;;14.43;100.00;99513.28;6346040;28;20040;-71
2023/05/16 01:27:26;;;;;;;4.80;3.50;;;;;;;14.35;100.00;99521.84;6310364;28;20589;-73
2023/05/16 01:30:32;;;;;;;5.07;4.03;;;;;;;14.38;100.00;99508.44;6320404;28;20351;-72
2023/05/16 01:33:33;;;;;;;6.75;3.67;;;;;;;14.35;100.00;99506.09;6320772;28;20044;-71
2023/05/16 01:36:52;;;;;;;5.32;3.58;;;;;;;14.31;100.00;99497.63;6320596;28;20158;-72
2023/05/16 01:40:04;;;;;;;8.93;3.95;;;;;;;14.32;100.00;99501.09;6320638;28;20354;-72
2023/05/16 01:43:12;;;;;;;8.20;4.07;;;;;;;14.33;100.00;99508.00;6302783;28;20055;-71
2023/05/16 01:46:20;;;;;;;5.88;4.20;;;;;;;14.38;100.00;99518.09;6320344;28;20534;-72
2023/05/16 01:49:39;;;;;;;5.63;4.22;;;;;;;14.39;100.00;99518.00;6320506;28;20062;-72
2023/05/16 01:52:57;;;;;;;5.68;3.95;;;;;;;14.36;100.00;99512.16;6320184;28;20048;-72
2023/05/16 01:56:00;;;;;;;6.57;4.07;;;;;;;14.36;100.00;99505.13;6294194;28;20052;-71
2023/05/16 01:59:01;;;;;;;6.60;4.00;;;;;;;14.40;100.00;99503.88;6294150;28;20079;-71
2023/05/16 02:02:02;;;;;;;6.03;4.10;;;;;;;14.45;100.00;99511.34;6295391;28;20492;-72
2023/05/16 02:05:03;;;;;;;8.50;4.28;;;;;;;14.36;100.00;99510.34;6295648;28;20308;-72
2023/05/16 02:08:06;;;;;;;6.40;4.30;;;;;;;14.35;100.00;99508.72;6295542;28;20154;-72
2023/05/16 02:11:07;;;;;;;6.80;4.53;;;;;;;14.39;100.00;99515.38;6293902;28;20529;-71
2023/05/16 02:14:08;;;;;;;7.07;4.43;;;;;;;14.38;100.00;99511.06;6295196;28;20045;-72
2023/05/16 02:17:09;;;;;;;6.15;4.25;;;;;;;14.39;100.00;99511.88;6295263;28;20102;-73
2023/05/16 02:20:10;;;;;;;6.60;4.32;;;;;;;14.35;100.00;99518.34;6293811;28;20059;-72
2023/05/16 02:23:11;;;;;;;6.25;4.32;;;;;;;14.42;100.00;99530.00;6293903;28;20044;-72
2023/05/16 02:26:12;;;;;;;6.03;4.28;;;;;;;14.44;100.00;99528.91;6293725;28;20131;-71
2023/05/16 02:29:15;;;;;;;7.05;4.78;;;;;;;14.46;100.00;99516.47;6312309;28;20047;-73
2023/05/16 02:32:16;;;;;;;10.73;4.68;;;;;;;14.43;100.00;99502.78;6320043;28;20044;-72
2023/05/16 02:35:19;;;;;;;8.67;4.70;;;;;;;14.27;100.00;99498.88;6320182;28;20044;-72
2023/05/16 02:38:20;;;;;;;6.43;4.63;;;;;;;14.26;100.00;99507.69;6319878;28;20051;-72
2023/05/16 02:41:21;;;;;;;6.20;4.47;;;;;;;14.31;100.00;99509.94;6319111;28;20507;-72
2023/05/16 02:44:22;;;;;;;6.25;3.88;;;;;;;14.33;100.00;99521.13;6322268;28;20056;-71
2023/05/16 02:47:22;;;;;;;6.90;4.15;;;;;;;14.36;100.00;99533.16;6323716;28;20087;-71
2023/05/16 02:50:23;;;;;;;6.53;4.07;;;;;;;14.39;100.00;99528.47;6323395;28;20044;-71
2023/05/16 02:53:24;;;;;;;6.72;4.00;;;;;;;14.41;100.00;99528.34;6323180;28;20093;-73
2023/05/16 02:56:25;;;;;;;5.80;3.63;;;;;;;14.32;100.00;99522.09;6346256;28;20048;-72
2023/05/16 02:59:26;;;;;;;9.23;4.28;;;;;;;14.37;100.00;99513.81;6331378;28;20090;-72
2023/05/16 03:02:27;;;;;;;6.75;4.68;;;;;;;14.37;100.00;99498.91;6349740;28;20055;-71
2023/05/16 03:05:28;;;;;;;8.35;4.40;;;;;;;14.39;100.00;99501.38;6331203;28;20047;-71
2023/05/16 03:08:34;;;;;;;6.45;4.20;;;;;;;14.42;100.00;99499.34;6349461;28;20502;-71
2023/05/16 03:11:36;;;;;;;6.45;3.70;;;;;;;14.45;100.00;99482.50;6331173;28;20422;-72
2023/05/16 03:14:37;;;;;;;6.63;4.05;;;;;;;14.41;100.00;99468.81;6327801;28;20047;-72
2023/05/16 03:17:40;;;;;;;6.10;3.78;;;;;;;14.43;100.00;99480.00;6336002;28;20389;-71
2023/05/16 03:20:43;;;;;;;7.70;4.50;;;;;;;14.54;100.00;99488.72;6349336;28;20135;-72
2023/05/16 03:23:44;;;;;;;7.13;4.60;;;;;;;14.50;100.00;99501.31;6345275;28;20054;-72
2023/05/16 03:26:45;;;;;;;6.75;4.05;;;;;;;14.51;100.00;99495.91;6330807;28;20051;-72
2023/05/16 03:29:46;;;;;;;7.53;4.32;;;;;;;14.49;100.00;99495.22;6344394;28;20051;-72
2023/05/16 03:32:46;;;;;;;6.78;4.05;;;;;;;14.46;100.00;99510.41;6330567;28;20043;-72
2023/05/16 03:35:47;;;;;;;6.07;3.80;;;;;;;14.51;100.00;99522.16;6330526;28;20455;-73
2023/05/16 03:38:48;;;;;;;6.30;4.50;;;;;;;14.48;100.00;99518.97;6348670;28;20500;-72
2023/05/16 03:41:50;;;;;;;7.45;4.78;;;;;;;14.50;100.00;99509.19;6337389;28;20052;-72
2023/05/16 03:44:51;;;;;;;6.90;3.97;;;;;;;14.46;100.00;99508.59;6339834;28;20039;-73
2023/05/16 03:47:52;;;;;;;6.32;4.20;;;;;;;14.51;100.00;99503.78;6348662;28;20453;-71
2023/05/16 03:50:53;;;;;;;6.75;4.15;;;;;;;14.51;100.00;99516.91;6348402;28;20094;-72
2023/05/16 03:53:53;;;;;;;9.52;4.35;;;;;;;14.57;100.00;99520.00;6347648;28;20135;-73
2023/05/16 03:56:54;;;;;;;5.32;3.80;;;;;;;14.74;100.00;99526.44;6330323;28;20048;-73
2023/05/16 03:59:55;;;;;;;6.45;3.97;;;;;;;14.75;100.00;99523.69;6329964;28;20104;-73
2023/05/16 04:02:56;;;;;;;7.93;4.50;;;;;;;14.77;100.00;99524.38;6336985;28;20451;-73
2023/05/16 04:05:57;;;;;;;6.13;4.00;;;;;;;14.79;100.00;99530.31;6322524;28;20051;-73
2023/05/16 04:08:57;;;;;;;5.93;3.97;;;;;;;14.64;100.00;99519.34;6304951;28;20078;-73
2023/05/16 04:12:00;;;;;;;7.38;4.40;;;;;;;14.64;100.00;99523.75;6322638;28;20131;-72
2023/05/16 04:15:05;;;;;;;5.88;4.07;;;;;;;14.51;100.00;99516.91;6304604;28;20044;-72
2023/05/16 04:18:07;;;;;;;5.55;3.83;;;;;;;14.54;100.00;99500.09;6322418;28;20135;-73
2023/05/16 04:21:10;;;;;;;;;;;;;;;14.57;100.00;99484.09;6323868;28;20102;-73
2023/05/16 04:24:11;;;;;;;6.47;4.00;;;;;;;14.44;100.00;99486.09;6323265;28;19924;-73
2023/05/16 04:27:11;;;;;;;7.88;4.63;;;;;;;14.52;100.00;99489.72;6305086;28;20496;-73
2023/05/16 04:30:13;;;;;;;7.20;3.92;;;;;;;14.50;100.00;99477.69;6304962;28;20055;-72
2023/05/16 04:33:16;;;;;;;5.95;4.07;;;;;;;14.58;100.00;99480.50;6309938;28;20105;-72
2023/05/16 04:36:17;;;;;;;8.02;4.07;;;;;;;14.51;100.00;99474.09;6323782;28;20475;-72
2023/05/16 04:39:18;;;;;;;11.73;3.78;;;;;;;14.58;100.00;99479.66;6323003;28;20527;-72
2023/05/16 04:42:19;;;;;;;4.95;3.33;;;;;;;14.56;100.00;99478.97;6332216;28;20058;-73
2023/05/16 04:45:19;;;;;;;8.88;3.58;;;;;;;14.58;100.00;99487.53;6331020;28;20048;-72
2023/05/16 04:48:22;;;;;;;7.22;3.83;;;;;;;14.56;100.00;99487.69;6322770;28;20051;-73
2023/05/16 04:51:26;;;;;;;5.50;3.65;;;;;;;14.65;100.00;99488.69;6322967;28;20471;-73
2023/05/16 04:54:27;;;;;;;5.97;3.92;;;;;;;14.71;100.00;99493.41;6312277;28;20089;-73
2023/05/16 04:57:28;;;;;;;8.40;4.07;;;;;;;14.62;100.00;99502.06;6345202;28;20741;-73
2023/05/16 05:00:31;;;;;;;5.38;3.72;;;;;;;14.79;100.00;99504.06;6347650;28;20051;-73
2023/05/16 05:03:33;;;;;;;6.25;4.47;;;;;;;14.84;100.00;99507.09;6337047;28;20052;-72
2023/05/16 05:06:34;;;;;;;7.32;3.92;;;;;;;14.95;100.00;99502.69;6311067;28;20586;-73
2023/05/16 05:09:35;;;;;;;6.85;4.50;;;;;;;15.01;100.00;99502.16;6340575;28;20050;-73
2023/05/16 05:12:36;;;;;;;9.00;4.38;;;;;;;15.18;100.00;99501.50;6325289;28;20082;-72
2023/05/16 05:15:36;;;;;;;7.03;4.07;;;;;;;15.27;100.00;99510.38;6325370;28;20123;-72
2023/05/16 05:18:37;;;;;;;7.15;4.07;;;;;;;15.41;100.00;99525.75;6339943;28;20734;-73
2023/05/16 05:21:41;;;;;;;7.13;4.85;;;;;;;15.44;100.00;99514.97;6316088;28;20048;-73
2023/05/16 05:24:42;;;;;;;9.30;4.43;;;;;;;15.49;100.00;99506.66;6304267;28;20066;-72
2023/05/16 05:27:43;;;;;;;5.15;4.03;;;;;;;15.41;100.00;99502.06;6345815;28;20487;-72
2023/05/16 05:30:44;;;;;;;6.80;4.90;;;;;;;15.56;100.00;99502.47;6346347;28;20059;-72
2023/05/16 05:33:45;;;;;;;5.95;4.35;;;;;;;15.56;100.00;99513.00;6346075;28;20052;-73
2023/05/16 05:36:48;;;;;;;7.13;4.80;;;;;;;15.66;100.00;99511.19;6346164;28;20051;-72
2023/05/16 05:39:49;;;;;;;9.77;4.35;;;;;;;15.58;100.00;99512.88;6321034;28;20054;-73
2023/05/16 05:42:50;;;;;;;7.32;4.63;;;;;;;15.65;100.00;99512.19;6322093;28;20052;-73
2023/05/16 05:45:51;;;;;;;7.18;4.45;;;;;;;15.66;100.00;99510.38;6316597;28;20139;-73
2023/05/16 05:48:52;;;;;;;5.88;3.85;;;;;;;15.78;100.00;99511.91;6323853;28;20056;-73
2023/05/16 05:51:53;;;;;;;5.72;4.05;;;;;;;15.73;100.00;99508.91;6328682;28;20100;-72
2023/05/16 05:54:58;;;;;;;7.03;4.17;;;;;;;15.80;100.00;99514.41;6346408;28;20055;-73
2023/05/16 05:57:59;;;;;;;6.05;4.05;;;;;;;15.97;100.00;99510.25;6328070;28;20055;-72
2023/05/16 06:00:59;;;;;;;6.05;3.95;;;;;;;15.70;100.00;99507.31;6345758;28;20078;-72
2023/05/16 06:04:00;;;;;;;6.50;4.18;;;;;;;15.89;100.00;99505.66;6336994;28;20051;-71
2023/05/16 06:07:03;;;;;;;10.43;4.38;;;;;;;15.67;100.00;99502.34;6329470;28;20052;-71
2023/05/16 06:10:04;;;;;;;6.80;4.15;;;;;;;15.66;100.00;99502.50;6302175;28;20056;-73
2023/05/16 06:13:07;;;;;;;8.68;4.65;;;;;;;15.64;100.00;99507.06;6302753;28;20135;-72
2023/05/16 06:16:10;;;;;;;9.70;4.05;;;;;;;15.56;100.00;99505.13;6307835;28;20040;-72
2023/05/16 06:19:14;;;;;;;6.95;4.68;;;;;;;15.70;100.00;99515.22;6328610;28;20472;-72
2023/05/16 06:22:15;;;;;;;6.80;4.10;;;;;;;15.74;100.00;99518.44;6323830;28;20047;-72
2023/05/16 06:25:16;;;;;;;6.07;4.38;;;;;;;15.82;100.00;99518.56;6306814;28;20477;-73
2023/05/16 06:28:17;;;;;;;6.90;4.93;;;;;;;15.82;100.00;99523.00;6307303;28;20052;-71
2023/05/16 06:31:18;;;;;;;7.33;4.97;;;;;;;15.91;100.00;99517.72;6326657;28;20050;-71
2023/05/16 06:34:22;;;;;;;7.97;5.00;;;;;;;15.86;100.00;99525.22;6314407;28;20056;-72
2023/05/16 06:37:24;;;;;;;6.38;4.30;;;;;;;15.94;100.00;99521.88;6342529;28;20059;-72
2023/05/16 06:40:25;;;;;;;;;;;;;;;16.04;100.00;99524.47;6319073;28;20055;-73
2023/05/16 06:43:26;;;;;;;7.82;4.90;;;;;;;16.07;100.00;99527.66;6306575;28;20235;-73
2023/05/16 06:46:26;;;;;;;10.05;4.65;;;;;;;16.11;100.00;99518.50;6324458;28;20480;-73
2023/05/16 06:49:27;;;;;;;8.23;5.40;;;;;;;16.00;100.00;99516.06;6306537;28;20044;-71
2023/05/16 06:52:28;;;;;;;8.40;5.75;;;;;;;16.14;100.00;99519.19;6324460;28;20058;-72
2023/05/16 06:55:29;;;;;;;12.52;5.70;;;;;;;16.23;100.00;99516.53;6324167;28;20552;-72
2023/05/16 06:58:30;;;;;;;7.95;4.65;;;;;;;16.19;100.00;99524.88;6345692;28;20578;-72
2023/05/16 07:01:31;;;;;;;6.20;4.47;;;;;;;16.23;100.00;99506.03;6349528;28;20586;-72
2023/05/16 07:04:33;;;;;;;11.18;4.68;;;;;;;16.18;100.00;99504.78;6331645;28;20052;-71
2023/05/16 07:07:34;;;;;;;6.95;4.82;;;;;;;16.31;100.00;99511.41;6349201;28;20142;-72
2023/05/16 07:10:35;;;;;;;6.73;4.80;;;;;;;16.49;100.00;99510.63;6336893;28;20079;-71
2023/05/16 07:13:36;;;;;;;9.50;4.75;;;;;;;16.37;100.00;99503.88;6325321;28;20286;-72
2023/05/16 07:16:39;;;;;;;14.63;4.70;;;;;;;16.34;100.00;99512.09;6319238;28;20040;-72
2023/05/16 07:19:40;;;;;;;7.25;4.80;;;;;;;16.35;100.00;99509.31;6323734;28;20056;-71
2023/05/16 07:22:41;;;;;;;6.20;4.78;;;;;;;16.41;100.00;99508.75;6324663;28;20074;-71
2023/05/16 07:25:41;;;;;;;7.80;4.60;;;;;;;16.24;100.00;99502.41;6340247;28;20048;-72
2023/05/16 07:28:42;;;;;;;7.57;4.30;;;;;;;16.31;100.00;99502.69;6335101;28;20056;-72
2023/05/16 07:31:43;;;;;;;10.50;5.03;;;;;;;16.43;100.00;99506.78;6305392;28;20048;-71
2023/05/16 07:34:44;;;;;;;12.02;4.53;;;;;;;16.50;100.00;99515.75;6303110;28;20041;-72
2023/05/16 07:37:46;;;;;;;6.90;4.07;;;;;;;16.46;100.00;99518.81;6326330;28;20052;-72
2023/05/16 07:40:49;;;;;;;6.28;4.25;;;;;;;16.52;100.00;99510.34;6346385;28;20055;-72
2023/05/16 07:43:50;;;;;;;7.88;4.43;;;;;;;16.47;100.00;99507.31;6317245;28;20048;-73
2023/05/16 07:46:51;;;;;;;7.82;4.10;;;;;;;16.59;100.00;99513.22;6338440;28;20104;-72
2023/05/16 07:49:52;;;;;;;8.50;4.47;;;;;;;16.64;100.00;99506.56;6330675;28;20051;-72
2023/05/16 07:52:53;;;;;;;7.95;4.72;;;;;;;16.77;100.00;99505.38;6330811;28;20108;-72
2023/05/16 07:55:54;;;;;;;13.68;5.03;;;;;;;16.65;100.00;99507.38;6330552;28;20052;-72
2023/05/16 07:58:58;;;;;;;8.57;4.35;;;;;;;16.86;100.00;99496.63;6348613;28;20051;-72
2023/05/16 08:01:59;;;;;;;8.68;5.00;;;;;;;16.76;100.00;99501.06;6330746;28;20055;-72
2023/05/16 08:04:59;;;;;;;6.65;4.40;;;;;;;16.77;100.00;99492.22;6330887;28;20048;-72
2023/05/16 08:08:00;;;;;;;9.13;4.97;;;;;;;16.94;100.00;99491.44;6330488;28;20047;-71
2023/05/16 08:11:01;;;;;;;7.07;3.67;;;;;;;16.85;100.00;99484.44;6348291;28;20105;-70
2023/05/16 08:14:02;;;;;;;6.97;4.03;;;;;;;16.92;100.00;99491.63;6347949;28;20056;-71
2023/05/16 08:17:03;;;;;;;8.35;4.78;;;;;;;16.96;100.00;99494.75;6348513;28;20495;-72
2023/05/16 08:20:04;;;;;;;6.82;4.45;;;;;;;16.90;100.00;99490.06;6348492;28;20112;-72
2023/05/16 08:23:05;;;;;;;8.00;4.45;;;;;;;17.03;100.00;99500.28;6348924;28;20051;-72
2023/05/16 08:26:06;;;;;;;8.77;4.20;;;;;;;17.17;100.00;99504.19;6348367;28;20046;-71
2023/05/16 08:29:07;;;;;;;5.53;3.60;;;;;;;17.11;100.00;99503.81;6330143;28;20480;-71
2023/05/16 08:32:09;;;;;;;5.03;3.58;;;;;;;17.20;100.00;99504.72;6347652;28;20108;-72
2023/05/16 08:35:11;;;;;;;6.70;3.90;;;;;;;17.20;100.00;99496.81;6329707;28;20039;-72
2023/05/16 08:38:12;;;;;;;12.05;3.90;;;;;;;17.11;100.00;99502.97;6347694;28;20128;-72
2023/05/16 08:41:13;;;;;;;10.23;4.00;;;;;;;17.13;100.00;99501.03;6348333;28;20051;-72
2023/05/16 08:44:20;;;;;;;7.15;4.25;;;;;;;17.00;100.00;99490.84;6329962;28;20093;-73
2023/05/16 08:47:23;;;;;;;7.97;3.63;;;;;;;17.03;100.00;99500.28;6348081;28;20051;-72
2023/05/16 08:50:25;;;;;;;18.80;3.95;;;;;;;17.00;100.00;99496.13;6330102;28;20043;-71
2023/05/16 08:53:32;;;;;;;12.57;4.18;;;;;;;17.16;100.00;99502.56;6348088;28;20054;-72
2023/05/16 08:56:33;;;;;;;8.30;4.30;;;;;;;17.20;100.00;99498.63;6347466;28;20048;-72
2023/05/16 08:59:35;;;;;;;8.07;4.18;;;;;;;17.21;100.00;99498.47;6329355;28;20056;-72
2023/05/16 09:02:37;;;;;;;9.60;4.67;;;;;;;17.25;100.00;99491.91;6347437;28;20438;-73
2023/05/16 09:05:38;;;;;;;7.53;4.30;;;;;;;17.17;100.00;99493.66;6329348;28;20102;-72
2023/05/16 09:08:40;;;;;;;7.20;4.18;;;;;;;17.11;100.00;99498.56;6337761;28;20070;-71
2023/05/16 09:11:41;;;;;;;6.85;4.13;;;;;;;17.05;100.00;99498.34;6312804;28;20091;-73
2023/05/16 09:14:42;;;;;;;8.10;4.35;;;;;;;17.22;100.00;99486.13;6337093;28;20164;-72
2023/05/16 09:17:45;;;;;;;8.20;4.53;;;;;;;17.19;100.00;99486.41;6328157;28;20055;-72
2023/05/16 09:20:49;;;;;;;7.40;4.45;;;;;;;17.19;100.00;99487.25;6334906;28;20043;-71
2023/05/16 09:23:50;;;;;;;8.52;4.18;;;;;;;17.36;100.00;99490.88;6330987;28;20051;-73
2023/05/16 09:26:51;;;;;;;7.68;4.93;;;;;;;17.30;100.00;99486.22;6325861;28;20609;-73
2023/05/16 09:29:56;;;;;;;7.70;3.63;;;;;;;17.31;100.00;99495.78;6341810;28;20068;-72
2023/05/16 09:32:57;;;;;;;28.08;11.85;;;;;;;17.28;100.00;99509.25;6309302;28;20043;-72
2023/05/16 09:36:02;;;;;;;8.88;4.32;;;;;;;17.17;100.00;99504.19;6329720;28;20040;-70
2023/05/16 09:39:05;;;;;;;13.43;4.35;;;;;;;17.15;100.00;99501.69;6342184;28;20048;-71
2023/05/16 09:42:11;;;;;;;12.77;4.20;;;;;;;17.11;100.00;99495.06;6345468;28;20487;-72
2023/05/16 09:45:12;;;;;;;6.80;4.07;;;;;;;16.92;100.00;99490.75;6326134;28;20476;-72
2023/05/16 09:48:14;;;;;;;10.13;4.72;;;;;;;16.98;100.00;99497.25;6302141;28;20085;-73
2023/05/16 09:51:15;;;;;;;6.60;3.80;;;;;;;17.15;100.00;99495.59;6302079;28;20415;-74
2023/05/16 09:54:16;;;;;;;6.88;4.22;;;;;;;17.13;100.00;99493.13;6310235;28;20046;-74
2023/05/16 09:57:18;;;;;;;12.27;3.97;;;;;;;17.17;100.00;99489.19;6327686;28;20047;-74
2023/05/16 10:00:19;;;;;;;6.70;4.18;;;;;;;17.26;100.00;99490.94;6345667;28;20047;-73
2023/05/16 10:03:20;;;;;;;9.38;4.13;;;;;;;17.33;100.00;99489.34;6327758;28;20100;-73
2023/05/16 10:06:21;;;;;;;8.02;4.40;;;;;;;17.50;100.00;99495.63;6322512;28;20108;-73
2023/05/16 10:09:23;;;;;;;8.85;4.20;;;;;;;17.55;100.00;99481.97;6346524;28;20055;-74
2023/05/16 10:12:30;;;;;;;9.30;4.18;;;;;;;17.53;100.00;99471.56;6318298;28;20060;-73
2023/05/16 10:15:31;;;;;;;7.22;4.45;;;;;;;17.70;100.00;99472.53;6321375;28;20052;-74
2023/05/16 10:18:33;;;;;;;12.53;4.37;;;;;;;17.81;100.00;99460.91;6332636;28;20082;-73
2023/05/16 10:21:35;;;;;;;;;;;;;;;17.90;100.00;99454.72;6346536;28;20115;-73
2023/05/16 10:24:57;;;;;;;6.63;3.83;;;;;;;17.70;100.00;99450.59;6346091;28;19920;-74
2023/05/16 10:28:01;;;;;;;9.10;3.75;;;;;;;17.65;100.00;99442.31;6346367;28;20141;-73
2023/05/16 10:31:03;;;;;;;13.30;4.80;;;;;;;17.72;100.00;99440.72;6346378;28;20104;-74
2023/05/16 10:34:06;;;;;;;8.05;4.70;;;;;;;17.70;100.00;99432.94;6328025;28;20487;-74
2023/05/16 10:37:08;;;;;;;8.65;3.72;;;;;;;17.60;100.00;99434.03;6346283;28;20055;-73
2023/05/16 10:40:10;;;;;;;6.70;3.70;;;;;;;17.50;100.00;99434.13;6346031;28;20056;-74
2023/05/16 10:43:22;;;;;;;7.40;3.75;;;;;;;17.57;100.00;99437.00;6328230;28;20086;-74
2023/05/16 10:46:27;;;;;;;5.95;4.07;;;;;;;17.61;100.00;99420.69;6345604;28;20453;-72
2023/05/16 10:49:30;;;;;;;5.78;3.95;;;;;;;17.64;100.00;99424.81;6305859;28;20052;-74
2023/05/16 10:52:34;;;;;;;6.85;4.07;;;;;;;17.73;100.00;99426.56;6301977;28;20055;-73
2023/05/16 10:55:35;;;;;;;13.55;4.22;;;;;;;17.70;100.00;99424.22;6315191;28;20101;-72
2023/05/16 10:58:38;;;;;;;6.27;3.73;;;;;;;17.67;100.00;99422.72;6322932;28;20054;-74
2023/05/16 11:01:40;;;;;;;9.75;3.72;;;;;;;17.76;100.00;99423.59;6345105;28;20305;-73
2023/05/16 11:04:53;;;;;;;8.25;4.00;;;;;;;17.63;100.00;99425.81;6347478;28;20047;-72
2023/05/16 11:08:07;;;;;;;6.25;3.67;;;;;;;17.80;100.00;99421.47;6349447;28;20499;-73
2023/05/16 11:11:47;;;;;;;10.95;4.10;;;;;;;17.89;100.00;99415.28;6320666;28;20055;-73
2023/05/16 11:14:50;;;;;;;8.23;3.88;;;;;;;17.90;100.00;99407.22;6312002;28;20500;-73
2023/05/16 11:18:15;;;;;;;5.97;3.47;;;;;;;18.09;100.00;99410.63;6341246;28;20085;-74
2023/05/16 11:21:15;;;;;;;7.32;3.80;;;;;;;18.28;100.00;99402.47;6334751;28;20062;-72
2023/05/16 11:24:30;;;;;;;7.78;4.72;;;;;;;18.45;100.00;99390.13;6350075;28;20047;-73
2023/05/16 11:27:32;;;;;;;11.32;4.85;;;;;;;18.38;100.00;99383.00;6306611;28;20078;-73
2023/05/16 11:30:32;;;;;;;;;;;;;;;18.38;100.00;99370.63;6307293;28;20052;-73
2023/05/16 11:33:34;;;;;;;7.07;4.03;;;;;;;18.26;100.00;99346.34;6324548;28;19993;-72
2023/05/16 11:36:37;;;;;;;12.05;8.27;;;;;;;18.05;100.00;99332.72;6310962;28;20076;-73
2023/05/16 11:39:37;;;;;;;10.80;7.20;;;;;;;18.08;100.00;99346.44;6331195;28;20094;-73
2023/05/16 11:42:44;;;;;;;10.45;5.35;;;;;;;18.12;100.00;99360.16;6331442;28;20047;-72
2023/05/16 11:45:46;;;;;;;10.20;5.32;;;;;;;18.32;100.00;99361.56;6349198;28;20514;-73
2023/05/16 11:48:47;;;;;;;6.28;3.60;;;;;;;18.12;100.00;99355.69;6349309;28;20059;-74
2023/05/16 11:51:50;;;;;;;8.38;3.92;;;;;;;18.00;100.00;99341.13;6349465;28;20051;-72
2023/05/16 11:54:51;;;;;;;7.07;3.58;;;;;;;17.96;100.00;99333.69;6348676;28;20483;-72
2023/05/16 11:57:55;;;;;;;6.50;3.95;;;;;;;17.86;100.00;99344.38;6345769;28;20054;-71
2023/05/16 12:00:56;;;;;;;11.32;4.40;;;;;;;18.02;100.00;99357.63;6335546;28;20055;-71
2023/05/16 12:03:56;;;;;;;9.52;3.92;;;;;;;17.95;100.00;99356.59;6318800;28;20694;-71
2023/05/16 12:07:00;;;;;;;7.55;4.13;;;;;;;18.10;100.00;99351.56;6329268;28;20078;-72
2023/05/16 12:10:08;;;;;;;11.48;4.00;;;;;;;18.18;100.00;99343.69;6348010;28;20143;-73
2023/05/16 12:13:09;;;;;;;10.57;3.70;;;;;;;18.26;100.00;99342.84;6330381;28;20101;-73
2023/05/16 12:16:13;;;;;;;6.22;4.05;;;;;;;18.45;100.00;99342.59;6347830;28;20048;-72
2023/05/16 12:19:16;;;;;;;8.82;3.80;;;;;;;18.46;100.00;99338.13;6346408;28;20048;-72
2023/05/16 12:22:18;;;;;;;8.50;4.18;;;;;;;18.49;100.00;99335.16;6328855;28;20050;-72
2023/05/16 12:25:20;;;;;;;;;;;;;;;18.26;100.00;99322.59;6329659;28;20047;-73
2023/05/16 12:28:21;;;;;;;7.03;3.95;;;;;;;18.38;100.00;99331.00;6346863;28;19949;-73
2023/05/16 12:31:23;;;;;;;4.60;3.47;;;;;;;18.43;100.00;99326.09;6346284;28;20047;-72
2023/05/16 12:34:28;;;;;;;12.38;4.30;;;;;;;18.60;100.00;99337.50;6328711;28;20043;-73
2023/05/16 12:37:29;;;;;;;9.07;4.22;;;;;;;18.68;100.00;99350.72;6329218;28;20467;-73
2023/05/16 12:40:30;;;;;;;9.03;4.50;;;;;;;18.71;100.00;99347.75;6329459;28;20162;-73
2023/05/16 12:43:30;;;;;;;8.87;4.43;;;;;;;18.73;100.00;99351.03;6329503;28;20075;-71
2023/05/16 12:46:31;;;;;;;11.40;5.17;;;;;;;18.89;100.00;99350.28;6329025;28;20039;-70
2023/05/16 12:49:34;;;;;;;8.07;5.00;;;;;;;18.99;100.00;99352.78;6329208;28;20055;-72
2023/05/16 12:52:37;;;;;;;11.27;5.10;;;;;;;19.12;100.00;99349.63;6329225;28;20091;-73
2023/05/16 12:55:38;;;;;;;9.18;5.05;;;;;;;19.07;100.00;99358.06;6319726;28;20093;-73
2023/05/16 12:58:42;;;;;;;10.30;3.58;;;;;;;18.88;100.00;99350.44;6297925;28;20061;-73
2023/05/16 13:01:44;;;;;;;4.95;3.60;;;;;;;18.96;100.00;99336.41;6318448;28;20054;-73
2023/05/16 13:04:45;;;;;;;7.25;3.75;;;;;;;18.88;100.00;99335.44;6309266;28;20048;-73
2023/05/16 13:07:50;;;;;;;9.73;4.73;;;;;;;18.98;100.00;99347.63;6287103;28;20135;-72
2023/05/16 13:10:51;;;;;;;8.35;4.25;;;;;;;18.91;100.00;99342.19;6280631;28;20052;-72
2023/05/16 13:13:52;;;;;;;9.33;4.83;;;;;;;18.87;100.00;99340.88;6294642;28;20099;-72
2023/05/16 13:16:55;;;;;;;19.37;3.87;;;;;;;18.69;100.00;99331.22;6294762;28;20400;-72
2023/05/16 13:19:56;;;;;;;14.00;3.88;;;;;;;18.82;100.00;99336.09;6293450;28;20415;-72
2023/05/16 13:22:57;;;;;;;10.23;4.30;;;;;;;18.85;100.00;99332.28;6293595;28;20053;-74
2023/05/16 13:26:01;;;;;;;9.07;3.93;;;;;;;18.92;100.00;99331.47;6293442;28;20307;-73
2023/05/16 13:29:01;;;;;;;8.70;3.67;;;;;;;18.66;100.00;99333.38;6294657;28;20057;-72
2023/05/16 13:32:03;;;;;;;10.43;4.30;;;;;;;18.68;100.00;99334.88;6293468;28;20135;-72
2023/05/16 13:35:04;;;;;;;13.80;4.23;;;;;;;18.64;100.00;99324.78;6293870;28;20045;-72
2023/05/16 13:38:05;;;;;;;6.00;3.42;;;;;;;18.64;100.00;99328.25;6294996;28;20090;-72
2023/05/16 13:41:08;;;;;;;7.00;4.20;;;;;;;18.68;100.00;99324.31;6293229;28;20048;-72
2023/05/16 13:44:09;;;;;;;5.75;3.45;;;;;;;18.66;100.00;99314.91;6293215;28;20048;-72
2023/05/16 13:47:10;;;;;;;11.47;3.87;;;;;;;18.56;100.00;99308.94;6293032;28;20060;-72
2023/05/16 13:50:11;;;;;;;8.53;3.73;;;;;;;18.62;100.00;99303.81;6293616;28;20088;-73
2023/05/16 13:53:11;;;;;;;12.30;4.00;;;;;;;18.57;100.00;99298.19;6294488;28;20070;-73
2023/05/16 13:56:15;;;;;;;9.43;4.00;;;;;;;18.51;100.00;99291.75;6325600;28;20075;-71
2023/05/16 13:59:17;;;;;;;5.43;3.38;;;;;;;18.44;100.00;99292.56;6321879;28;20048;-71
2023/05/16 14:02:20;;;;;;;11.37;4.33;;;;;;;18.60;100.00;99276.75;6310166;28;20055;-71
2023/05/16 14:05:21;;;;;;;5.18;3.63;;;;;;;18.68;100.00;99281.22;6335959;28;20054;-71
2023/05/16 14:08:22;;;;;;;6.60;4.30;;;;;;;18.63;100.00;99270.28;6305113;28;20083;-70